Terminal Aerodrome Forecast
Issued by NWS

Home | Current Version | Previous Version | Text Only | Print | Product List | Glossary Off
Versions: 1 2 3 4 5 6 7 8 9 10 11 12 13 14 15 16 17 18 19

592
FTUS43 KUNR 190523
TAFGCC
TAF
KGCC 190523Z 1906/2006 16020KT P6SM SKC
     FM191200 19011KT P6SM SKC
     FM191600 34018KT P6SM SCT150
     FM192200 03010KT P6SM SCT150=

USA.gov is the U.S. government's official web portal to all federal, state and local government web resources and services.